Time;durP1;ratioP1;P1;durP2;ratioP2;P2;SDS_P1;SDS_P2;PMS_P1;PMS_P2;Temp;Humidity;BMP_temperature;BMP_pressure;BME280_temperature;BME280_humidity;BME280_pressure;Samples;Min_cycle;Max_cycle;Signal;HPM_P1;HPM_P2
2022/09/06 00:00:11;;;;;;;0.20;0.10;;;;;;;;;;5036123;28;20059;-83
2022/09/06 00:02:37;;;;;;;0.20;0.10;;;;;;;;;;5047548;28;20036;-83
2022/09/06 00:05:04;;;;;;;0.20;0.10;;;;;;;;;;5033405;28;20048;-82
2022/09/06 00:07:30;;;;;;;0.20;0.10;;;;;;;;;;5058633;28;20055;-83
2022/09/06 00:09:56;;;;;;;0.20;0.10;;;;;;;;;;5031265;28;20035;-83
2022/09/06 00:12:23;;;;;;;0.30;0.28;;;;;;;;;;5036097;28;20044;-84
2022/09/06 00:14:49;;;;;;;0.20;0.10;;;;;;;;;;5052629;28;20044;-83
2022/09/06 00:17:15;;;;;;;0.20;0.10;;;;;;;;;;5064941;28;20042;-83
2022/09/06 00:19:41;;;;;;;0.20;0.10;;;;;;;;;;5032306;28;20127;-84
2022/09/06 00:22:08;;;;;;;0.20;0.10;;;;;;;;;;5025722;28;20049;-84
2022/09/06 00:24:36;;;;;;;0.30;0.30;;;;;;;;;;5028289;28;20119;-83
2022/09/06 00:27:02;;;;;;;0.20;0.10;;;;;;;;;;5064592;28;20441;-83
2022/09/06 00:29:28;;;;;;;0.20;0.10;;;;;;;;;;5062414;22;20120;-83
2022/09/06 00:31:54;;;;;;;0.20;0.10;;;;;;;;;;5025484;28;20120;-83
2022/09/06 00:34:20;;;;;;;0.20;0.10;;;;;;;;;;4992905;28;20045;-84
2022/09/06 00:36:46;;;;;;;0.20;0.10;;;;;;;;;;4977310;28;20079;-83
2022/09/06 00:39:12;;;;;;;0.20;0.10;;;;;;;;;;4982342;28;20037;-83
2022/09/06 00:41:38;;;;;;;0.20;0.10;;;;;;;;;;4992124;28;20049;-81
2022/09/06 00:44:04;;;;;;;0.20;0.10;;;;;;;;;;5009263;28;20186;-84
2022/09/06 00:46:31;;;;;;;0.20;0.10;;;;;;;;;;4976898;28;20045;-83
2022/09/06 00:49:02;;;;;;;1.08;0.15;;;;;;;;;;5023004;28;20049;-83
2022/09/06 00:51:30;;;;;;;0.20;0.10;;;;;;;;;;5009168;28;20077;-83
2022/09/06 00:53:56;;;;;;;0.20;0.10;;;;;;;;;;4990192;28;20049;-82
2022/09/06 00:56:23;;;;;;;0.20;0.10;;;;;;;;;;5008258;28;20075;-83
2022/09/06 00:58:49;;;;;;;0.20;0.10;;;;;;;;;;5007127;28;20055;-83
2022/09/06 01:01:15;;;;;;;0.20;0.10;;;;;;;;;;4990354;28;20037;-83
2022/09/06 01:03:42;;;;;;;0.20;0.10;;;;;;;;;;5008421;28;20048;-83
2022/09/06 01:06:17;;;;;;;0.20;0.10;;;;;;;;;;5003994;28;20050;-82
2022/09/06 01:08:49;;;;;;;0.20;0.10;;;;;;;;;;4998383;28;20045;-83
2022/09/06 01:11:24;;;;;;;0.20;0.10;;;;;;;;;;4992935;28;20527;-83
2022/09/06 01:14:02;;;;;;;0.20;0.10;;;;;;;;;;5004893;28;20110;-83
2022/09/06 01:16:31;;;;;;;0.20;0.10;;;;;;;;;;5003743;28;20057;-84
2022/09/06 01:19:15;;;;;;;0.20;0.10;;;;;;;;;;4999148;28;20502;-82
2022/09/06 01:21:51;;;;;;;0.20;0.10;;;;;;;;;;5000555;28;20041;-83
2022/09/06 01:24:29;;;;;;;0.20;0.10;;;;;;;;;;5014710;28;20034;-84
2022/09/06 01:27:14;;;;;;;0.20;0.10;;;;;;;;;;5012661;28;20064;-83
2022/09/06 01:29:51;;;;;;;0.20;0.10;;;;;;;;;;5000769;28;20033;-83
2022/09/06 01:32:30;;;;;;;0.20;0.10;;;;;;;;;;5014359;28;20804;-82
2022/09/06 01:35:06;;;;;;;0.20;0.10;;;;;;;;;;5014841;28;20124;-83
2022/09/06 01:37:33;;;;;;;0.20;0.10;;;;;;;;;;5011349;28;20037;-82
2022/09/06 01:39:59;;;;;;;0.20;0.10;;;;;;;;;;5002450;28;20399;-83
2022/09/06 01:42:27;;;;;;;0.20;0.10;;;;;;;;;;4998263;28;20033;-82
2022/09/06 01:44:59;;;;;;;0.20;0.10;;;;;;;;;;5008195;28;20047;-81
2022/09/06 01:47:34;;;;;;;0.20;0.15;;;;;;;;;;5013727;28;20041;-83
2022/09/06 01:50:13;;;;;;;0.20;0.10;;;;;;;;;;5018924;28;20079;-81
2022/09/06 01:52:45;;;;;;;0.20;0.10;;;;;;;;;;5001276;28;20084;-82
2022/09/06 01:55:11;;;;;;;0.20;0.10;;;;;;;;;;4999546;28;20052;-81
2022/09/06 01:57:53;;;;;;;0.20;0.20;;;;;;;;;;5019282;28;20392;-83
2022/09/06 02:00:21;;;;;;;0.20;0.10;;;;;;;;;;5016505;28;20104;-82
2022/09/06 02:02:50;;;;;;;0.20;0.10;;;;;;;;;;5000193;28;20056;-81
2022/09/06 02:05:16;;;;;;;0.25;0.20;;;;;;;;;;5007961;28;20459;-82
2022/09/06 02:07:43;;;;;;;0.20;0.10;;;;;;;;;;5018383;28;20875;-84
2022/09/06 02:10:14;;;;;;;0.20;0.10;;;;;;;;;;5002732;28;20042;-84
2022/09/06 02:12:41;;;;;;;0.20;0.10;;;;;;;;;;5002387;28;20148;-83
2022/09/06 02:15:07;;;;;;;0.20;0.10;;;;;;;;;;5016662;28;20523;-83
2022/09/06 02:17:35;;;;;;;0.20;0.10;;;;;;;;;;5012647;28;20961;-83
2022/09/06 02:20:21;;;;;;;0.20;0.10;;;;;;;;;;5004342;28;20603;-83
2022/09/06 02:22:48;;;;;;;0.20;0.10;;;;;;;;;;5012951;28;20042;-81
2022/09/06 02:25:23;;;;;;;0.20;0.10;;;;;;;;;;5010719;28;20072;-83
2022/09/06 02:27:49;;;;;;;0.20;0.10;;;;;;;;;;4993850;28;20050;-82
2022/09/06 02:30:15;;;;;;;0.20;0.10;;;;;;;;;;5011434;28;20057;-83
2022/09/06 02:32:47;;;;;;;0.20;0.10;;;;;;;;;;5008615;28;20038;-83
2022/09/06 02:35:14;;;;;;;0.20;0.10;;;;;;;;;;5011570;28;20048;-83
2022/09/06 02:37:41;;;;;;;0.20;0.10;;;;;;;;;;5008208;28;20072;-83
2022/09/06 02:40:07;;;;;;;0.20;0.10;;;;;;;;;;4996282;28;20052;-83
2022/09/06 02:42:34;;;;;;;0.20;0.10;;;;;;;;;;4996006;28;20052;-83
2022/09/06 02:45:00;;;;;;;0.20;0.10;;;;;;;;;;4999822;28;20519;-82
2022/09/06 02:47:26;;;;;;;0.20;0.10;;;;;;;;;;4997950;28;20046;-83
2022/09/06 02:49:52;;;;;;;0.20;0.10;;;;;;;;;;4996479;28;20046;-83
2022/09/06 02:52:18;;;;;;;0.20;0.10;;;;;;;;;;4993170;28;20049;-82
2022/09/06 02:54:44;;;;;;;0.20;0.10;;;;;;;;;;5002667;28;20049;-81
2022/09/06 02:57:10;;;;;;;0.20;0.10;;;;;;;;;;5004405;28;20041;-82
2022/09/06 02:59:36;;;;;;;0.20;0.10;;;;;;;;;;5006469;28;20837;-82
2022/09/06 03:02:02;;;;;;;0.20;0.10;;;;;;;;;;4998131;28;20038;-82
2022/09/06 03:04:28;;;;;;;0.20;0.10;;;;;;;;;;4995414;28;20583;-82
2022/09/06 03:06:55;;;;;;;0.20;0.10;;;;;;;;;;5010400;28;20610;-82
2022/09/06 03:09:21;;;;;;;0.20;0.10;;;;;;;;;;5010827;28;20064;-82
2022/09/06 03:11:47;;;;;;;0.20;0.10;;;;;;;;;;5009995;28;20041;-83
2022/09/06 03:14:15;;;;;;;0.20;0.13;;;;;;;;;;4997018;28;20037;-83
2022/09/06 03:16:41;;;;;;;0.20;0.10;;;;;;;;;;4976486;28;20033;-82
2022/09/06 03:19:08;;;;;;;0.20;0.15;;;;;;;;;;4997269;28;20045;-81
2022/09/06 03:21:34;;;;;;;0.20;0.10;;;;;;;;;;5009416;28;20046;-82
2022/09/06 03:24:00;;;;;;;0.20;0.10;;;;;;;;;;4999481;28;20500;-82
2022/09/06 03:26:26;;;;;;;0.20;0.10;;;;;;;;;;4979259;28;20045;-81
2022/09/06 03:28:52;;;;;;;0.20;0.10;;;;;;;;;;4997320;28;20465;-81
2022/09/06 03:31:18;;;;;;;0.20;0.10;;;;;;;;;;4989861;28;20565;-81
2022/09/06 03:33:44;;;;;;;0.20;0.10;;;;;;;;;;4972627;28;20128;-82
2022/09/06 03:36:10;;;;;;;0.20;0.10;;;;;;;;;;4968761;28;20124;-82
2022/09/06 03:38:37;;;;;;;0.20;0.10;;;;;;;;;;4992000;28;20037;-81
2022/09/06 03:41:03;;;;;;;0.20;0.10;;;;;;;;;;5009531;28;20041;-83
2022/09/06 03:43:30;;;;;;;0.65;0.30;;;;;;;;;;4992698;28;20078;-82
2022/09/06 03:45:57;;;;;;;0.20;0.13;;;;;;;;;;5009335;28;20703;-82
2022/09/06 03:48:23;;;;;;;0.20;0.10;;;;;;;;;;5009385;28;20045;-84
2022/09/06 03:50:51;;;;;;;0.20;0.10;;;;;;;;;;5011019;28;20442;-84
2022/09/06 03:53:18;;;;;;;0.20;0.10;;;;;;;;;;5011250;28;20042;-82
2022/09/06 03:55:47;;;;;;;0.38;0.20;;;;;;;;;;5009659;28;20044;-83
2022/09/06 03:58:15;;;;;;;0.20;0.10;;;;;;;;;;5027736;28;20515;-82
2022/09/06 04:00:41;;;;;;;0.20;0.10;;;;;;;;;;5006610;28;20053;-82
2022/09/06 04:03:07;;;;;;;0.20;0.10;;;;;;;;;;4993418;28;20470;-81
2022/09/06 04:05:33;;;;;;;1.50;0.30;;;;;;;;;;4993012;28;20393;-83
2022/09/06 04:08:00;;;;;;;0.20;0.10;;;;;;;;;;5010683;28;21007;-83
2022/09/06 04:10:26;;;;;;;0.20;0.10;;;;;;;;;;5007897;28;20033;-83
2022/09/06 04:12:52;;;;;;;0.20;0.10;;;;;;;;;;4993150;28;20034;-83
2022/09/06 04:15:18;;;;;;;0.20;0.10;;;;;;;;;;5007330;28;20057;-81
2022/09/06 04:17:45;;;;;;;0.20;0.10;;;;;;;;;;4993291;28;20054;-83
2022/09/06 04:20:12;;;;;;;0.30;0.20;;;;;;;;;;4992076;28;20675;-82
2022/09/06 04:22:38;;;;;;;0.20;0.10;;;;;;;;;;5009910;28;20065;-81
2022/09/06 04:25:04;;;;;;;0.20;0.10;;;;;;;;;;4992676;28;20049;-82
2022/09/06 04:27:30;;;;;;;0.20;0.10;;;;;;;;;;5002562;28;20060;-83
2022/09/06 04:29:56;;;;;;;0.20;0.10;;;;;;;;;;4996444;28;20042;-83
2022/09/06 04:32:23;;;;;;;0.20;0.10;;;;;;;;;;4985936;28;20099;-82
2022/09/06 04:34:49;;;;;;;0.20;0.10;;;;;;;;;;5012853;28;20040;-83
2022/09/06 04:37:18;;;;;;;0.20;0.10;;;;;;;;;;4972899;28;20064;-83
2022/09/06 04:39:45;;;;;;;0.20;0.10;;;;;;;;;;5002154;28;20064;-80
2022/09/06 04:42:11;;;;;;;0.20;0.10;;;;;;;;;;4985382;28;21301;-83
2022/09/06 04:44:37;;;;;;;0.20;0.10;;;;;;;;;;4990718;28;20136;-82
2022/09/06 04:47:04;;;;;;;0.20;0.10;;;;;;;;;;4989653;28;20055;-81
2022/09/06 04:49:30;;;;;;;0.20;0.10;;;;;;;;;;5006066;28;20029;-81
2022/09/06 04:51:56;;;;;;;0.20;0.20;;;;;;;;;;4998095;28;20048;-81
2022/09/06 04:54:22;;;;;;;0.20;0.10;;;;;;;;;;4999678;28;20037;-83
2022/09/06 04:56:48;;;;;;;0.20;0.10;;;;;;;;;;4992327;28;20131;-82
2022/09/06 04:59:14;;;;;;;0.20;0.10;;;;;;;;;;5003899;28;20084;-81
2022/09/06 05:01:41;;;;;;;0.20;0.10;;;;;;;;;;4993041;28;20049;-83
2022/09/06 05:04:07;;;;;;;0.20;0.10;;;;;;;;;;5006692;28;20179;-82
2022/09/06 05:06:33;;;;;;;0.50;0.20;;;;;;;;;;4991233;28;20044;-82
2022/09/06 05:09:01;;;;;;;0.20;0.10;;;;;;;;;;5005131;28;20056;-83
2022/09/06 05:11:28;;;;;;;0.20;0.10;;;;;;;;;;4975782;28;20129;-82
2022/09/06 05:13:54;;;;;;;0.20;0.10;;;;;;;;;;4992485;28;20631;-82
2022/09/06 05:16:20;;;;;;;0.20;0.10;;;;;;;;;;4990727;28;21009;-81
2022/09/06 05:18:46;;;;;;;0.20;0.10;;;;;;;;;;4995592;28;20856;-80
2022/09/06 05:21:12;;;;;;;0.20;0.10;;;;;;;;;;4992910;28;20042;-82
2022/09/06 05:23:38;;;;;;;0.20;0.10;;;;;;;;;;5008314;28;21375;-83
2022/09/06 05:26:05;;;;;;;0.20;0.10;;;;;;;;;;5004947;28;20046;-83
2022/09/06 05:28:31;;;;;;;0.20;0.10;;;;;;;;;;4993724;28;20052;-82
2022/09/06 05:31:23;;;;;;;0.20;0.10;;;;;;;;;;4980780;28;20034;-83
2022/09/06 05:33:49;;;;;;;0.20;0.10;;;;;;;;;;5016699;28;20045;-83
2022/09/06 05:36:15;;;;;;;0.20;0.10;;;;;;;;;;4981709;28;20179;-82
2022/09/06 05:38:41;;;;;;;0.20;0.10;;;;;;;;;;4995007;28;20041;-82
2022/09/06 05:41:07;;;;;;;0.25;0.10;;;;;;;;;;4996115;28;20041;-83
2022/09/06 05:43:33;;;;;;;0.20;0.10;;;;;;;;;;4993371;28;20033;-83
2022/09/06 05:45:59;;;;;;;0.20;0.10;;;;;;;;;;4996854;28;20041;-82
2022/09/06 05:48:25;;;;;;;0.20;0.10;;;;;;;;;;5013212;28;20049;-82
2022/09/06 05:51:01;;;;;;;0.20;0.20;;;;;;;;;;5007446;28;20040;-83
2022/09/06 05:53:27;;;;;;;0.20;0.10;;;;;;;;;;4997616;28;20073;-84
2022/09/06 05:55:53;;;;;;;0.20;0.10;;;;;;;;;;4995917;28;20069;-84
2022/09/06 05:58:19;;;;;;;0.20;0.10;;;;;;;;;;4999197;28;20069;-84
2022/09/06 06:00:45;;;;;;;0.30;0.30;;;;;;;;;;4999378;28;20075;-83
2022/09/06 06:03:11;;;;;;;0.20;0.15;;;;;;;;;;4996742;28;20154;-83
2022/09/06 06:05:37;;;;;;;0.20;0.10;;;;;;;;;;4992252;28;20492;-84
2022/09/06 06:08:03;;;;;;;0.20;0.10;;;;;;;;;;4983464;28;20530;-83
2022/09/06 06:10:29;;;;;;;0.20;0.10;;;;;;;;;;4998057;28;20641;-83
2022/09/06 06:12:56;;;;;;;0.20;0.10;;;;;;;;;;4979581;28;20128;-84
2022/09/06 06:15:22;;;;;;;0.20;0.10;;;;;;;;;;5011979;28;20039;-84
2022/09/06 06:17:48;;;;;;;0.20;0.10;;;;;;;;;;5014860;28;20048;-83
2022/09/06 06:20:15;;;;;;;0.20;0.10;;;;;;;;;;5003909;28;20095;-84
2022/09/06 06:22:41;;;;;;;0.20;0.20;;;;;;;;;;4993256;28;20701;-83
2022/09/06 06:25:07;;;;;;;0.20;0.10;;;;;;;;;;5015414;28;20041;-84
2022/09/06 06:27:35;;;;;;;0.20;0.10;;;;;;;;;;5003147;28;20042;-84
2022/09/06 06:30:01;;;;;;;0.20;0.10;;;;;;;;;;4999323;28;20044;-84
2022/09/06 06:32:27;;;;;;;0.20;0.10;;;;;;;;;;5002644;28;20108;-86
2022/09/06 06:34:53;;;;;;;0.20;0.10;;;;;;;;;;5013336;28;20038;-86
2022/09/06 06:37:19;;;;;;;0.20;0.10;;;;;;;;;;4999346;28;20041;-84
2022/09/06 06:39:46;;;;;;;0.20;0.10;;;;;;;;;;5001370;28;20116;-84
2022/09/06 06:42:14;;;;;;;0.20;0.10;;;;;;;;;;5002996;28;20054;-83
2022/09/06 06:44:40;;;;;;;0.20;0.10;;;;;;;;;;4998064;28;20052;-84
2022/09/06 06:47:07;;;;;;;0.20;0.10;;;;;;;;;;5011215;28;20037;-84
2022/09/06 06:49:33;;;;;;;0.20;0.10;;;;;;;;;;5000516;28;20065;-84
2022/09/06 06:51:59;;;;;;;0.20;0.10;;;;;;;;;;5013209;28;20049;-84
2022/09/06 06:54:25;;;;;;;0.52;0.25;;;;;;;;;;4988970;28;20579;-85
2022/09/06 06:56:51;;;;;;;0.20;0.10;;;;;;;;;;5010636;28;20038;-84
2022/09/06 06:59:17;;;;;;;0.22;0.22;;;;;;;;;;4998777;28;20156;-84
2022/09/06 07:01:43;;;;;;;0.20;0.10;;;;;;;;;;4995438;28;20106;-85
2022/09/06 07:04:11;;;;;;;0.20;0.10;;;;;;;;;;4997859;28;20053;-83
2022/09/06 07:06:50;;;;;;;0.28;0.22;;;;;;;;;;5014497;28;20095;-85
2022/09/06 07:09:17;;;;;;;0.20;0.10;;;;;;;;;;4995818;28;20042;-84
2022/09/06 07:11:43;;;;;;;0.20;0.10;;;;;;;;;;4999902;28;20048;-82
2022/09/06 07:14:09;;;;;;;0.20;0.10;;;;;;;;;;5001100;28;20048;-84
2022/09/06 07:16:35;;;;;;;0.20;0.10;;;;;;;;;;4992592;28;20044;-84
2022/09/06 07:19:02;;;;;;;0.20;0.10;;;;;;;;;;5000329;28;20038;-84
2022/09/06 07:21:28;;;;;;;0.20;0.10;;;;;;;;;;5014577;28;20291;-83
2022/09/06 07:23:54;;;;;;;0.20;0.10;;;;;;;;;;5013662;28;20080;-84
2022/09/06 07:26:21;;;;;;;0.20;0.10;;;;;;;;;;5013602;28;20539;-84
2022/09/06 07:28:47;;;;;;;0.20;0.10;;;;;;;;;;5012516;28;20087;-84
2022/09/06 07:31:14;;;;;;;0.20;0.20;;;;;;;;;;5018437;28;20029;-84
2022/09/06 07:33:40;;;;;;;0.20;0.10;;;;;;;;;;5015115;28;20045;-83
2022/09/06 07:36:07;;;;;;;0.20;0.10;;;;;;;;;;5010769;28;20650;-83
2022/09/06 07:38:34;;;;;;;0.20;0.10;;;;;;;;;;5013855;28;21605;-85
2022/09/06 07:41:05;;;;;;;0.20;0.10;;;;;;;;;;4995409;28;20536;-83
2022/09/06 07:43:31;;;;;;;0.20;0.10;;;;;;;;;;5015367;28;20439;-86
2022/09/06 07:46:00;;;;;;;0.20;0.10;;;;;;;;;;4997634;28;20476;-83
2022/09/06 07:48:30;;;;;;;0.20;0.20;;;;;;;;;;4998381;28;20397;-84
2022/09/06 07:51:02;;;;;;;0.20;0.10;;;;;;;;;;5000137;28;20395;-85
2022/09/06 07:53:28;;;;;;;0.20;0.10;;;;;;;;;;5016872;28;20063;-85
2022/09/06 07:55:54;;;;;;;0.30;0.22;;;;;;;;;;4996270;28;20098;-85
2022/09/06 07:58:21;;;;;;;0.28;0.20;;;;;;;;;;5012808;28;20037;-84
2022/09/06 08:00:47;;;;;;;0.20;0.10;;;;;;;;;;5000042;28;20064;-84
2022/09/06 08:03:13;;;;;;;0.20;0.10;;;;;;;;;;5012938;28;20041;-83
2022/09/06 08:05:39;;;;;;;0.20;0.10;;;;;;;;;;5003255;28;20042;-85
2022/09/06 08:08:05;;;;;;;0.20;0.20;;;;;;;;;;4981742;28;20485;-84
2022/09/06 08:10:31;;;;;;;0.20;0.10;;;;;;;;;;4979883;28;20040;-83
2022/09/06 08:12:57;;;;;;;0.20;0.10;;;;;;;;;;5012063;28;20098;-85
2022/09/06 08:15:23;;;;;;;0.20;0.05;;;;;;;;;;4999055;28;20049;-85
2022/09/06 08:17:50;;;;;;;0.20;0.10;;;;;;;;;;4999214;28;20037;-84
2022/09/06 08:20:17;;;;;;;0.20;0.20;;;;;;;;;;5012142;28;20049;-85
2022/09/06 08:22:43;;;;;;;0.20;0.10;;;;;;;;;;5000425;28;20037;-84
2022/09/06 08:25:09;;;;;;;0.20;0.10;;;;;;;;;;4998691;28;20467;-84
2022/09/06 08:27:35;;;;;;;0.20;0.10;;;;;;;;;;5006459;28;20506;-84
2022/09/06 08:30:02;;;;;;;0.20;0.13;;;;;;;;;;5016870;28;20041;-83
2022/09/06 08:32:28;;;;;;;0.20;0.10;;;;;;;;;;4985279;28;20543;-84
2022/09/06 08:34:54;;;;;;;0.20;0.15;;;;;;;;;;5002177;28;20496;-84
2022/09/06 08:37:20;;;;;;;0.20;0.10;;;;;;;;;;5013101;28;20033;-84
2022/09/06 08:39:46;;;;;;;0.20;0.10;;;;;;;;;;5014855;28;20080;-84
2022/09/06 08:42:12;;;;;;;0.20;0.10;;;;;;;;;;5016249;28;20580;-84
2022/09/06 08:44:38;;;;;;;0.20;0.10;;;;;;;;;;5002261;28;20064;-85
2022/09/06 08:47:10;;;;;;;0.20;0.10;;;;;;;;;;5014061;28;20338;-84
2022/09/06 08:49:39;;;;;;;0.20;0.10;;;;;;;;;;5002573;28;20038;-85
2022/09/06 08:52:24;;;;;;;0.20;0.10;;;;;;;;;;4996482;28;20029;-82
2022/09/06 08:55:05;;;;;;;0.20;0.10;;;;;;;;;;4997186;28;20499;-86
2022/09/06 08:57:42;;;;;;;0.20;0.10;;;;;;;;;;4991312;28;20400;-84
2022/09/06 09:00:10;;;;;;;0.20;0.10;;;;;;;;;;4996093;28;20045;-84
2022/09/06 09:02:51;;;;;;;0.20;0.10;;;;;;;;;;5018714;28;21544;-84
2022/09/06 09:05:24;;;;;;;0.20;0.13;;;;;;;;;;4998850;28;20038;-84
2022/09/06 09:07:56;;;;;;;0.20;0.10;;;;;;;;;;4992951;28;20520;-85
2022/09/06 09:10:27;;;;;;;0.20;0.10;;;;;;;;;;5011354;28;20065;-84
2022/09/06 09:12:53;;;;;;;0.20;0.10;;;;;;;;;;5006497;28;20045;-83
2022/09/06 09:15:19;;;;;;;0.20;0.10;;;;;;;;;;5004258;28;20045;-83
2022/09/06 09:17:46;;;;;;;0.20;0.10;;;;;;;;;;5013922;28;20091;-84
2022/09/06 09:20:13;;;;;;;0.30;0.30;;;;;;;;;;5000404;28;20492;-84
2022/09/06 09:22:39;;;;;;;0.20;0.10;;;;;;;;;;4985356;28;20053;-83
2022/09/06 09:25:07;;;;;;;0.20;0.10;;;;;;;;;;4999522;28;20366;-84
2022/09/06 09:27:33;;;;;;;0.20;0.10;;;;;;;;;;4999275;28;20046;-84
2022/09/06 09:30:01;;;;;;;0.20;0.10;;;;;;;;;;4999396;28;20046;-85
2022/09/06 09:32:31;;;;;;;0.20;0.10;;;;;;;;;;5014664;28;20034;-85
2022/09/06 09:35:16;;;;;;;0.20;0.10;;;;;;;;;;4999406;28;20037;-85
2022/09/06 09:37:42;;;;;;;0.28;0.25;;;;;;;;;;5000572;28;20192;-84
2022/09/06 09:40:27;;;;;;;0.20;0.10;;;;;;;;;;5016605;28;20579;-85
2022/09/06 09:42:54;;;;;;;0.20;0.10;;;;;;;;;;5018140;28;20088;-84
2022/09/06 09:45:20;;;;;;;0.20;0.10;;;;;;;;;;5013675;28;20076;-84
2022/09/06 09:47:47;;;;;;;0.20;0.10;;;;;;;;;;5000613;28;20057;-84
2022/09/06 09:50:22;;;;;;;0.20;0.10;;;;;;;;;;5012849;28;20631;-85
2022/09/06 09:52:48;;;;;;;0.20;0.10;;;;;;;;;;5017780;28;20045;-84
2022/09/06 09:55:21;;;;;;;0.20;0.10;;;;;;;;;;5000772;28;20048;-85
2022/09/06 09:57:49;;;;;;;0.20;0.10;;;;;;;;;;5018110;28;20033;-85
2022/09/06 10:00:38;;;;;;;0.20;0.10;;;;;;;;;;4989126;28;20043;-84
2022/09/06 10:03:12;;;;;;;0.20;0.10;;;;;;;;;;5004002;28;20136;-85
2022/09/06 10:05:39;;;;;;;0.20;0.10;;;;;;;;;;5000153;28;20033;-86
2022/09/06 10:08:08;;;;;;;0.20;0.10;;;;;;;;;;5017189;28;20049;-86
2022/09/06 10:10:39;;;;;;;0.20;0.10;;;;;;;;;;5014853;28;20037;-84
2022/09/06 10:13:14;;;;;;;0.20;0.10;;;;;;;;;;5021234;28;20117;-85
2022/09/06 10:15:40;;;;;;;0.20;0.10;;;;;;;;;;5003512;28;20033;-84
2022/09/06 10:18:13;;;;;;;0.20;0.10;;;;;;;;;;5000857;28;20050;-84
2022/09/06 10:20:45;;;;;;;0.20;0.10;;;;;;;;;;5002381;28;20076;-85
2022/09/06 10:23:25;;;;;;;0.20;0.10;;;;;;;;;;5003719;28;20411;-84
2022/09/06 10:25:55;;;;;;;0.40;0.20;;;;;;;;;;5002122;28;20038;-84
2022/09/06 10:28:37;;;;;;;0.20;0.10;;;;;;;;;;5001477;28;20044;-84
2022/09/06 10:31:07;;;;;;;0.20;0.10;;;;;;;;;;4990670;28;20187;-83
2022/09/06 10:33:39;;;;;;;0.20;0.10;;;;;;;;;;5013093;28;20042;-86
2022/09/06 10:36:05;;;;;;;;;;;;;;;;;;5002321;28;20092;-85
2022/09/06 10:38:35;;;;;;;0.20;0.10;;;;;;;;;;5025436;28;19926;-85
2022/09/06 10:41:20;;;;;;;0.20;0.10;;;;;;;;;;5002826;28;20047;-84
2022/09/06 10:43:49;;;;;;;0.20;0.10;;;;;;;;;;5008734;28;20064;-85
2022/09/06 10:46:17;;;;;;;0.20;0.10;;;;;;;;;;5018930;28;20037;-85
2022/09/06 10:48:47;;;;;;;0.20;0.10;;;;;;;;;;5018868;28;20042;-84
2022/09/06 10:51:32;;;;;;;0.20;0.10;;;;;;;;;;5016547;28;20041;-84
2022/09/06 10:53:58;;;;;;;0.20;0.10;;;;;;;;;;5004253;28;20065;-85
2022/09/06 10:56:26;;;;;;;0.20;0.10;;;;;;;;;;4999484;28;20499;-84
2022/09/06 10:59:09;;;;;;;0.20;0.10;;;;;;;;;;5003876;28;20037;-85
2022/09/06 11:01:57;;;;;;;0.20;0.10;;;;;;;;;;5017685;28;20045;-85
2022/09/06 11:04:44;;;;;;;0.20;0.10;;;;;;;;;;5019613;28;20056;-84
2022/09/06 11:07:33;;;;;;;0.20;0.10;;;;;;;;;;5022779;28;20060;-85
2022/09/06 11:10:02;;;;;;;0.20;0.10;;;;;;;;;;4997165;28;20389;-84
2022/09/06 11:12:41;;;;;;;0.20;0.10;;;;;;;;;;5011412;28;20052;-85
2022/09/06 11:15:11;;;;;;;0.20;0.10;;;;;;;;;;4999163;28;20037;-85
2022/09/06 11:17:46;;;;;;;0.20;0.10;;;;;;;;;;5022344;28;20049;-85
2022/09/06 11:20:18;;;;;;;0.20;0.20;;;;;;;;;;4996477;28;20055;-85
2022/09/06 11:22:44;;;;;;;;;;;;;;;;;;4999393;28;20095;-85
2022/09/06 11:25:19;;;;;;;0.20;0.10;;;;;;;;;;5006486;28;19921;-85
2022/09/06 11:27:47;;;;;;;0.20;0.10;;;;;;;;;;5000163;28;20072;-84
2022/09/06 11:30:15;;;;;;;0.20;0.10;;;;;;;;;;5002182;28;20503;-84
2022/09/06 11:32:47;;;;;;;0.20;0.10;;;;;;;;;;5011859;28;20467;-85
2022/09/06 11:35:33;;;;;;;0.20;0.10;;;;;;;;;;5013975;28;20455;-83
2022/09/06 11:38:11;;;;;;;0.20;0.10;;;;;;;;;;5016160;28;20044;-84
2022/09/06 11:40:42;;;;;;;0.20;0.10;;;;;;;;;;5015054;28;20500;-85
2022/09/06 11:43:12;;;;;;;0.20;0.10;;;;;;;;;;5017512;28;20408;-85
2022/09/06 11:45:52;;;;;;;0.20;0.10;;;;;;;;;;5006521;28;20429;-84
2022/09/06 11:48:25;;;;;;;0.20;0.10;;;;;;;;;;5002343;28;20112;-84
2022/09/06 11:51:02;;;;;;;0.20;0.10;;;;;;;;;;5011554;28;20033;-85
2022/09/06 11:53:35;;;;;;;0.20;0.10;;;;;;;;;;5017293;28;20164;-85
2022/09/06 11:56:01;;;;;;;0.20;0.10;;;;;;;;;;5003450;28;20049;-83
2022/09/06 11:58:29;;;;;;;0.20;0.10;;;;;;;;;;4994370;28;20038;-85
2022/09/06 12:01:15;;;;;;;0.20;0.10;;;;;;;;;;5001335;28;20037;-85
2022/09/06 12:03:41;;;;;;;0.20;0.10;;;;;;;;;;5012452;28;20975;-84
2022/09/06 12:06:16;;;;;;;0.20;0.10;;;;;;;;;;5005764;28;20068;-83
2022/09/06 12:08:42;;;;;;;0.20;0.10;;;;;;;;;;4996748;28;20400;-83
2022/09/06 12:11:28;;;;;;;0.20;0.10;;;;;;;;;;5005612;28;20520;-83
2022/09/06 12:13:54;;;;;;;0.20;0.10;;;;;;;;;;5001476;28;20041;-85
2022/09/06 12:16:21;;;;;;;0.20;0.10;;;;;;;;;;4999261;28;20063;-83
2022/09/06 12:18:47;;;;;;;0.20;0.10;;;;;;;;;;5007511;28;21328;-85
2022/09/06 12:21:44;;;;;;;0.20;0.10;;;;;;;;;;5003611;28;20133;-84
2022/09/06 12:24:32;;;;;;;0.20;0.10;;;;;;;;;;5006202;28;20534;-87
2022/09/06 12:27:11;;;;;;;0.20;0.10;;;;;;;;;;5002201;28;20086;-83
2022/09/06 12:29:37;;;;;;;0.20;0.10;;;;;;;;;;5049898;22;20044;-87
2022/09/06 12:32:04;;;;;;;0.20;0.10;;;;;;;;;;5025539;28;21204;-84
2022/09/06 12:34:33;;;;;;;0.20;0.10;;;;;;;;;;5029099;28;20594;-81
2022/09/06 12:37:06;;;;;;;0.20;0.10;;;;;;;;;;5052767;28;20093;-84
2022/09/06 12:39:35;;;;;;;0.20;0.10;;;;;;;;;;5045490;28;20081;-85
2022/09/06 12:42:05;;;;;;;0.20;0.10;;;;;;;;;;5042950;28;20040;-88
2022/09/06 12:44:42;;;;;;;0.20;0.10;;;;;;;;;;5066985;28;20046;-87
2022/09/06 12:47:20;;;;;;;0.20;0.10;;;;;;;;;;5061141;28;20035;-87
2022/09/06 12:49:47;;;;;;;0.20;0.20;;;;;;;;;;5045712;28;20122;-87
2022/09/06 12:52:14;;;;;;;0.20;0.10;;;;;;;;;;5047159;28;20036;-86
2022/09/06 12:54:47;;;;;;;0.20;0.10;;;;;;;;;;5047777;28;20036;-86
2022/09/06 12:57:27;;;;;;;0.20;0.10;;;;;;;;;;5051944;28;20036;-86
2022/09/06 12:59:54;;;;;;;0.20;0.10;;;;;;;;;;5052563;28;20067;-85
2022/09/06 13:02:42;;;;;;;0.20;0.10;;;;;;;;;;5071183;28;20081;-84
2022/09/06 13:05:10;;;;;;;0.20;0.10;;;;;;;;;;5047627;28;20425;-85
2022/09/06 13:07:40;;;;;;;0.20;0.10;;;;;;;;;;5059477;28;20080;-84
2022/09/06 13:10:07;;;;;;;0.20;0.10;;;;;;;;;;5059991;28;20148;-87
2022/09/06 13:12:34;;;;;;;0.20;0.10;;;;;;;;;;5065058;28;20476;-87
2022/09/06 13:15:06;;;;;;;0.20;0.10;;;;;;;;;;5049575;28;20033;-85
2022/09/06 13:17:32;;;;;;;0.20;0.10;;;;;;;;;;5050665;28;20137;-86
2022/09/06 13:20:09;;;;;;;0.20;0.10;;;;;;;;;;5040684;28;20040;-85
2022/09/06 13:22:40;;;;;;;0.20;0.10;;;;;;;;;;5041279;28;20051;-85
2022/09/06 13:25:13;;;;;;;0.20;0.10;;;;;;;;;;5061285;28;20048;-86
2022/09/06 13:27:44;;;;;;;0.20;0.10;;;;;;;;;;5053868;28;20494;-86
2022/09/06 13:30:33;;;;;;;0.20;0.10;;;;;;;;;;5049654;28;20047;-86
2022/09/06 13:33:00;;;;;;;0.20;0.10;;;;;;;;;;5049342;28;20545;-86
2022/09/06 13:35:28;;;;;;;0.20;0.10;;;;;;;;;;5068348;28;20566;-85
2022/09/06 13:38:13;;;;;;;0.20;0.10;;;;;;;;;;5070737;28;20452;-84
2022/09/06 13:40:45;;;;;;;0.20;0.10;;;;;;;;;;5073263;28;20074;-85
2022/09/06 13:43:12;;;;;;;0.20;0.10;;;;;;;;;;5057321;28;20028;-83
2022/09/06 13:45:44;;;;;;;0.20;0.10;;;;;;;;;;5051631;28;20070;-86
2022/09/06 13:48:13;;;;;;;0.20;0.10;;;;;;;;;;5063325;28;20568;-85
2022/09/06 13:50:40;;;;;;;0.20;0.10;;;;;;;;;;5051585;28;20036;-84
2022/09/06 13:53:06;;;;;;;0.20;0.10;;;;;;;;;;5051143;28;20425;-85
2022/09/06 13:55:32;;;;;;;0.20;0.10;;;;;;;;;;5029049;28;20532;-82
2022/09/06 13:57:58;;;;;;;0.20;0.10;;;;;;;;;;5036330;28;20032;-86
2022/09/06 14:00:24;;;;;;;0.20;0.10;;;;;;;;;;5050219;28;20039;-88
2022/09/06 14:02:51;;;;;;;0.20;0.10;;;;;;;;;;5032104;28;20048;-84
2022/09/06 14:05:25;;;;;;;0.20;0.10;;;;;;;;;;5072989;28;20671;-87
2022/09/06 14:07:51;;;;;;;0.20;0.10;;;;;;;;;;5040315;28;20039;-85
2022/09/06 14:10:22;;;;;;;0.20;0.10;;;;;;;;;;5053310;28;20035;-87
2022/09/06 14:12:54;;;;;;;0.20;0.20;;;;;;;;;;5036441;28;20100;-85
2022/09/06 14:15:30;;;;;;;0.20;0.10;;;;;;;;;;5051371;28;20032;-87
2022/09/06 14:17:59;;;;;;;0.20;0.10;;;;;;;;;;5031729;28;20422;-86
2022/09/06 14:20:31;;;;;;;0.20;0.10;;;;;;;;;;5032466;28;20036;-86
2022/09/06 14:23:05;;;;;;;0.20;0.10;;;;;;;;;;5066996;28;20549;-86
2022/09/06 14:25:34;;;;;;;0.20;0.10;;;;;;;;;;5049968;28;20040;-86
2022/09/06 14:28:00;;;;;;;0.20;0.10;;;;;;;;;;5064111;28;20032;-84
2022/09/06 14:30:29;;;;;;;0.20;0.20;;;;;;;;;;5043717;28;20036;-88
2022/09/06 14:33:13;;;;;;;0.20;0.10;;;;;;;;;;5043987;28;20046;-88
2022/09/06 14:35:41;;;;;;;0.20;0.10;;;;;;;;;;5044957;28;20040;-86
2022/09/06 14:38:08;;;;;;;0.20;0.10;;;;;;;;;;5048178;28;20067;-86
2022/09/06 14:40:35;;;;;;;0.20;0.10;;;;;;;;;;5045311;28;20193;-83
2022/09/06 14:43:04;;;;;;;0.22;0.20;;;;;;;;;;5046002;28;20395;-86
2022/09/06 14:46:23;;;;;;;0.20;0.10;;;;;;;;;;5024990;28;20139;-88
2022/09/06 14:49:19;;;;;;;0.20;0.10;;;;;;;;;;4962275;28;20062;-86
2022/09/06 14:51:57;;;;;;;0.20;0.10;;;;;;;;;;5063048;28;20312;-87
2022/09/06 14:54:27;;;;;;;0.20;0.10;;;;;;;;;;5053875;28;20115;-86
2022/09/06 14:57:05;;;;;;;0.20;0.10;;;;;;;;;;5030810;28;20035;-85